createdAt,value
2022-07-27T00:00:32.477Z,1.17
2022-07-27T00:03:19.556Z,1.35
2022-07-27T00:06:08.100Z,1.33
2022-07-27T00:08:54.414Z,1.30
2022-07-27T00:11:40.932Z,1.23
2022-07-27T00:14:27.614Z,1.58
2022-07-27T00:17:14.040Z,1.42
2022-07-27T00:20:01.031Z,1.55
2022-07-27T00:22:49.032Z,1.45
2022-07-27T00:25:36.223Z,1.60
2022-07-27T00:28:22.950Z,1.60
2022-07-27T00:31:10.183Z,1.27
2022-07-27T00:33:56.938Z,1.20
2022-07-27T00:36:43.273Z,1.80
2022-07-27T00:39:32.020Z,1.17
2022-07-27T00:42:21.115Z,1.30
2022-07-27T00:45:08.751Z,1.40
2022-07-27T00:47:55.439Z,1.77
2022-07-27T00:50:43.805Z,1.50
2022-07-27T00:53:32.074Z,1.55
2022-07-27T00:56:20.639Z,1.98
2022-07-27T00:59:09.098Z,1.55
2022-07-27T01:01:58.553Z,1.67
2022-07-27T01:04:47.250Z,1.70
2022-07-27T01:07:34.367Z,1.80
2022-07-27T01:10:21.384Z,1.50
2022-07-27T01:13:12.918Z,1.40
2022-07-27T01:16:00.530Z,1.90
2022-07-27T01:18:47.428Z,1.67
2022-07-27T01:21:36.366Z,1.60
2022-07-27T01:24:23.256Z,1.70
2022-07-27T01:27:10.338Z,1.60
2022-07-27T01:29:57.132Z,1.65
2022-07-27T01:32:43.610Z,1.83
2022-07-27T01:35:31.395Z,1.60
2022-07-27T01:38:19.603Z,1.45
2022-07-27T01:41:06.185Z,1.50
2022-07-27T01:43:53.137Z,1.48
2022-07-27T01:46:39.491Z,1.70
2022-07-27T01:49:26.432Z,1.60
2022-07-27T01:52:13.165Z,1.83
2022-07-27T01:55:00.950Z,1.83
2022-07-27T01:57:47.708Z,1.52
2022-07-27T02:00:35.173Z,1.65
2022-07-27T02:03:22.130Z,1.65
2022-07-27T02:06:09.929Z,1.70
2022-07-27T02:08:56.844Z,1.50
2022-07-27T02:12:01.301Z,1.98
2022-07-27T02:14:48.091Z,1.75
2022-07-27T02:17:35.372Z,1.60
2022-07-27T02:20:23.714Z,1.67
2022-07-27T02:23:10.378Z,1.67
2022-07-27T02:26:01.139Z,1.65
2022-07-27T02:28:49.109Z,1.73
2022-07-27T02:31:35.806Z,1.83
2022-07-27T02:34:22.244Z,2.45
2022-07-27T02:37:09.381Z,1.75
2022-07-27T02:39:55.987Z,1.48
2022-07-27T02:42:42.475Z,1.30
2022-07-27T02:45:30.195Z,2.03
2022-07-27T02:48:16.877Z,1.70
2022-07-27T02:51:04.124Z,1.92
2022-07-27T02:53:51.216Z,1.88
2022-07-27T02:56:38.193Z,1.80
2022-07-27T02:59:24.970Z,1.90
2022-07-27T03:02:13.285Z,1.98
2022-07-27T03:05:00.178Z,1.83
2022-07-27T03:07:47.050Z,1.90
2022-07-27T03:10:33.513Z,1.70
2022-07-27T03:13:20.094Z,1.92
2022-07-27T03:16:08.695Z,1.80
2022-07-27T03:18:57.685Z,1.88
2022-07-27T03:21:44.738Z,1.70
2022-07-27T03:24:31.568Z,1.83
2022-07-27T03:27:17.919Z,1.58
2022-07-27T03:30:06.295Z,2.08
2022-07-27T03:32:53.345Z,1.90
2022-07-27T03:35:41.262Z,2.05
2022-07-27T03:38:28.090Z,1.75
2022-07-27T03:41:14.619Z,2.17
2022-07-27T03:44:01.192Z,2.00
2022-07-27T03:46:47.579Z,1.98
2022-07-27T03:49:34.583Z,1.77
2022-07-27T03:52:23.371Z,2.00
2022-07-27T03:55:10.253Z,1.92
2022-07-27T03:57:56.818Z,1.60
2022-07-27T04:00:43.439Z,2.25
2022-07-27T04:03:30.093Z,1.90
2022-07-27T04:06:17.216Z,1.83
2022-07-27T04:09:08.701Z,1.98
2022-07-27T04:11:55.861Z,2.53
2022-07-27T04:14:42.621Z,2.10
2022-07-27T04:17:55.209Z,2.08
2022-07-27T04:20:36.920Z,2.08
2022-07-27T04:23:23.908Z,2.25
2022-07-27T04:26:11.615Z,2.20
2022-07-27T04:28:58.619Z,2.00
2022-07-27T04:31:45.471Z,1.80
2022-07-27T04:34:32.340Z,2.30
2022-07-27T04:37:18.750Z,1.77
2022-07-27T04:40:07.677Z,1.90
2022-07-27T04:42:55.353Z,2.10
2022-07-27T04:45:42.066Z,2.17
2022-07-27T04:48:29.212Z,2.25
2022-07-27T04:51:16.217Z,2.28
2022-07-27T04:54:03.068Z,2.30
2022-07-27T04:56:49.884Z,2.30
2022-07-27T04:59:37.666Z,2.30
2022-07-27T05:02:26.329Z,2.03
2022-07-27T05:05:13.479Z,1.92
2022-07-27T05:07:59.936Z,1.75
2022-07-27T05:10:46.268Z,1.80
2022-07-27T05:13:33.074Z,1.90
2022-07-27T05:16:23.871Z,2.30
2022-07-27T05:19:15.170Z,2.17
2022-07-27T05:22:02.239Z,1.85
2022-07-27T05:24:48.792Z,1.70
2022-07-27T05:27:37.157Z,1.73
2022-07-27T05:30:41.119Z,1.70
2022-07-27T05:33:28.923Z,2.00
2022-07-27T05:36:15.423Z,1.80
2022-07-27T05:39:02.011Z,2.00
2022-07-27T05:41:49.016Z,1.70
2022-07-27T05:44:36.765Z,2.10
2022-07-27T05:47:23.630Z,1.40
2022-07-27T05:50:12.144Z,1.75
2022-07-27T05:52:58.842Z,1.80
2022-07-27T05:55:58.910Z,1.50
2022-07-27T05:58:46.032Z,1.52
2022-07-27T06:01:32.592Z,1.50
2022-07-27T06:04:19.237Z,1.83
2022-07-27T06:07:24.280Z,1.65
2022-07-27T06:10:11.931Z,1.50
2022-07-27T06:12:58.673Z,1.60
2022-07-27T06:15:45.720Z,1.70
2022-07-27T06:18:32.574Z,1.40
2022-07-27T06:21:19.839Z,2.00
2022-07-27T06:24:08.677Z,1.70
2022-07-27T06:26:55.122Z,1.70
2022-07-27T06:29:42.085Z,1.70
2022-07-27T06:32:29.035Z,1.67
2022-07-27T06:35:16.309Z,1.70
2022-07-27T06:38:04.992Z,1.38
2022-07-27T06:40:53.699Z,1.27
2022-07-27T06:43:40.429Z,1.95
2022-07-27T06:46:27.165Z,1.85
2022-07-27T06:49:15.709Z,1.55
2022-07-27T06:52:02.777Z,1.70
2022-07-27T06:54:49.990Z,1.35
2022-07-27T06:57:38.308Z,1.50
2022-07-27T07:00:25.216Z,1.27
2022-07-27T07:03:12.228Z,1.60
2022-07-27T07:05:59.041Z,1.10
2022-07-27T07:08:45.795Z,1.23
2022-07-27T07:11:32.185Z,1.33
2022-07-27T07:14:21.564Z,0.90
2022-07-27T07:17:08.246Z,1.27
2022-07-27T07:19:54.960Z,1.50
2022-07-27T07:22:41.839Z,1.67
2022-07-27T07:25:29.313Z,1.83
2022-07-27T07:28:15.942Z,1.45
2022-07-27T07:31:04.000Z,1.30
2022-07-27T07:33:51.488Z,1.10
2022-07-27T07:36:38.192Z,1.20
2022-07-27T07:39:30.876Z,1.65
2022-07-27T07:42:18.310Z,1.43
2022-07-27T07:45:05.603Z,1.13
2022-07-27T07:47:54.450Z,1.38
2022-07-27T07:50:41.399Z,1.10
2022-07-27T07:53:27.992Z,1.40
2022-07-27T07:56:15.321Z,1.50
2022-07-27T07:59:04.854Z,1.10
2022-07-27T08:01:51.600Z,1.05
2022-07-27T08:04:39.817Z,1.40
2022-07-27T08:07:26.610Z,1.20
2022-07-27T08:10:15.065Z,1.27
2022-07-27T08:13:01.746Z,1.10
2022-07-27T08:15:48.884Z,1.00
2022-07-27T08:18:35.762Z,1.13
2022-07-27T08:21:23.973Z,1.10
2022-07-27T08:24:10.780Z,1.10
2022-07-27T08:26:57.293Z,1.20
2022-07-27T08:29:43.839Z,1.20
2022-07-27T08:32:31.852Z,1.08
2022-07-27T08:35:19.090Z,0.82
2022-07-27T08:38:09.362Z,0.95
2022-07-27T08:40:57.285Z,1.00
2022-07-27T08:43:44.971Z,0.93
2022-07-27T08:46:32.965Z,0.80
2022-07-27T08:49:20.047Z,1.00
2022-07-27T08:52:07.410Z,1.20
2022-07-27T08:54:55.930Z,1.10
2022-07-27T08:57:42.542Z,1.30
2022-07-27T09:00:29.413Z,1.20
2022-07-27T09:03:20.370Z,0.90
2022-07-27T09:06:07.458Z,0.88
2022-07-27T09:09:00.420Z,0.90
2022-07-27T09:12:05.928Z,1.00
2022-07-27T09:14:53.347Z,0.90
2022-07-27T09:17:50.256Z,0.80
2022-07-27T09:20:37.521Z,0.90
2022-07-27T09:23:28.100Z,1.00
2022-07-27T09:26:31.008Z,1.00
2022-07-27T09:29:19.757Z,1.20
2022-07-27T09:32:15.851Z,1.20
2022-07-27T09:35:16.766Z,0.90
2022-07-27T09:38:18.711Z,1.00
2022-07-27T09:41:07.983Z,1.40
2022-07-27T09:47:22.625Z,0.80
2022-07-27T09:50:19.781Z,0.80
2022-07-27T09:53:41.505Z,0.70
2022-07-27T09:56:27.893Z,1.00
2022-07-27T09:59:19.991Z,0.70
2022-07-27T10:02:06.964Z,0.70
2022-07-27T10:04:56.448Z,0.82
2022-07-27T10:07:43.506Z,0.90
2022-07-27T10:10:30.497Z,0.95
2022-07-27T10:13:17.142Z,0.80
2022-07-27T10:16:05.763Z,0.85
2022-07-27T10:19:01.877Z,1.48
2022-07-27T10:21:50.851Z,0.82
2022-07-27T10:24:37.775Z,0.70
2022-07-27T10:27:28.917Z,0.90
2022-07-27T10:30:17.530Z,0.75
2022-07-27T10:33:15.245Z,0.77
2022-07-27T10:36:03.131Z,0.88
2022-07-27T10:38:52.567Z,0.77
2022-07-27T10:41:40.982Z,0.75
2022-07-27T10:44:31.435Z,0.90
2022-07-27T10:47:30.266Z,0.60
2022-07-27T10:50:37.928Z,0.90
2022-07-27T10:53:55.145Z,0.95
2022-07-27T10:56:50.903Z,0.73
2022-07-27T11:00:08.043Z,1.00
2022-07-27T11:02:58.016Z,0.70
2022-07-27T11:06:21.709Z,0.77
2022-07-27T11:12:13.690Z,0.90
2022-07-27T11:15:02.012Z,0.85
2022-07-27T11:18:01.031Z,0.73
2022-07-27T11:20:50.821Z,1.00
2022-07-27T11:23:52.413Z,0.90
2022-07-27T11:26:43.261Z,0.77
2022-07-27T11:29:40.050Z,0.70
2022-07-27T11:32:37.172Z,0.55
2022-07-27T11:35:24.084Z,0.73
2022-07-27T11:38:11.534Z,0.70
2022-07-27T11:41:12.854Z,0.70
2022-07-27T11:44:06.886Z,0.70
2022-07-27T11:47:01.669Z,0.80
2022-07-27T11:49:48.948Z,0.80
2022-07-27T11:52:36.052Z,0.70
2022-07-27T11:55:23.117Z,0.80
2022-07-27T11:58:09.858Z,0.70
2022-07-27T12:00:56.795Z,0.82
2022-07-27T12:03:47.125Z,0.73
2022-07-27T12:09:25.832Z,0.80
2022-07-27T12:12:15.025Z,0.68
2022-07-27T12:15:16.657Z,0.88
2022-07-27T12:18:09.690Z,0.75
2022-07-27T12:20:57.912Z,0.80
2022-07-27T12:23:50.818Z,0.80
2022-07-27T12:26:39.395Z,0.68
2022-07-27T12:29:26.159Z,0.90
2022-07-27T12:32:15.333Z,0.77
2022-07-27T12:35:02.518Z,1.02
2022-07-27T12:37:57.522Z,0.73
2022-07-27T12:40:47.502Z,1.00
2022-07-27T12:43:34.309Z,0.80
2022-07-27T12:46:22.991Z,0.68
2022-07-27T12:49:17.402Z,0.90
2022-07-27T12:52:08.181Z,1.00
2022-07-27T12:54:56.312Z,0.80
2022-07-27T12:57:55.111Z,1.27
2022-07-27T13:00:43.303Z,0.70
2022-07-27T13:03:30.478Z,0.98
2022-07-27T13:06:17.378Z,0.80
2022-07-27T13:09:04.504Z,0.80
2022-07-27T13:11:57.031Z,1.05
2022-07-27T13:14:46.678Z,0.80
2022-07-27T13:17:33.981Z,1.17
2022-07-27T13:20:20.719Z,0.80
2022-07-27T13:23:08.851Z,1.00
2022-07-27T13:25:55.543Z,0.75
2022-07-27T13:28:43.714Z,1.05
2022-07-27T13:31:30.207Z,1.23
2022-07-27T13:34:16.788Z,0.95
2022-07-27T13:37:03.857Z,1.40
2022-07-27T13:39:50.756Z,1.45
2022-07-27T13:42:38.143Z,0.80
2022-07-27T13:45:26.323Z,0.90
2022-07-27T13:48:13.291Z,1.15
2022-07-27T13:51:00.197Z,1.10
2022-07-27T13:53:47.282Z,1.58
2022-07-27T13:56:34.795Z,0.73
2022-07-27T13:59:21.238Z,0.80
2022-07-27T14:02:10.110Z,0.90
2022-07-27T14:04:58.394Z,0.75
2022-07-27T14:07:45.318Z,0.82
2022-07-27T14:10:39.657Z,1.00
2022-07-27T14:13:26.538Z,1.00
2022-07-27T14:16:13.601Z,1.10
2022-07-27T14:19:03.039Z,1.00
2022-07-27T14:21:49.443Z,1.00
2022-07-27T14:24:38.094Z,0.90
2022-07-27T14:27:24.875Z,1.10
2022-07-27T14:30:15.123Z,0.80
2022-07-27T14:33:05.483Z,1.15
2022-07-27T14:35:53.914Z,1.20
2022-07-27T14:38:44.103Z,1.00
2022-07-27T14:41:31.352Z,1.08
2022-07-27T14:44:18.865Z,1.10
2022-07-27T14:47:05.769Z,0.80
2022-07-27T14:49:52.660Z,1.00
2022-07-27T14:52:40.881Z,0.80
2022-07-27T14:55:27.864Z,1.40
2022-07-27T14:58:14.798Z,0.90
2022-07-27T15:01:02.001Z,1.00
2022-07-27T15:03:49.533Z,1.00
2022-07-27T15:06:39.130Z,0.93
2022-07-27T15:09:30.103Z,0.77
2022-07-27T15:12:18.127Z,1.20
2022-07-27T15:15:07.065Z,0.75
2022-07-27T15:17:54.077Z,1.10
2022-07-27T15:20:41.091Z,0.95
2022-07-27T15:23:27.621Z,1.13
2022-07-27T15:26:19.995Z,0.88
2022-07-27T15:29:06.637Z,1.20
2022-07-27T15:31:53.352Z,0.77
2022-07-27T15:34:40.430Z,1.20
2022-07-27T15:37:27.286Z,0.90
2022-07-27T15:40:31.756Z,0.90
2022-07-27T15:43:20.837Z,1.27
2022-07-27T15:46:08.372Z,0.70
2022-07-27T15:48:57.165Z,0.93
2022-07-27T15:51:44.404Z,0.80
2022-07-27T15:54:33.904Z,1.10
2022-07-27T15:57:22.474Z,0.80
2022-07-27T16:00:12.381Z,1.17
2022-07-27T16:03:00.027Z,1.02
2022-07-27T16:05:48.390Z,0.88
2022-07-27T16:08:34.972Z,1.02
2022-07-27T16:11:21.562Z,1.17
2022-07-27T16:14:08.098Z,1.00
2022-07-27T16:16:56.300Z,1.00
2022-07-27T16:19:42.999Z,1.00
2022-07-27T16:22:31.824Z,1.13
2022-07-27T16:25:18.687Z,1.10
2022-07-27T16:28:05.710Z,1.52
2022-07-27T16:30:52.548Z,1.05
2022-07-27T16:33:43.989Z,1.30
2022-07-27T16:36:38.226Z,0.82
2022-07-27T16:39:26.584Z,0.93
2022-07-27T16:42:13.045Z,0.95
2022-07-27T16:44:59.549Z,1.02
2022-07-27T16:47:46.497Z,1.25
2022-07-27T16:50:34.349Z,0.90
2022-07-27T16:53:21.099Z,1.00
2022-07-27T16:56:08.877Z,0.90
2022-07-27T16:58:55.915Z,0.98
2022-07-27T17:01:43.117Z,0.98
2022-07-27T17:04:29.799Z,1.10
2022-07-27T17:07:18.126Z,1.00
2022-07-27T17:10:04.850Z,0.93
2022-07-27T17:12:52.929Z,1.13
2022-07-27T17:15:40.681Z,1.10
2022-07-27T17:18:27.909Z,0.98
2022-07-27T17:21:14.863Z,0.80
2022-07-27T17:24:03.113Z,1.20
2022-07-27T17:26:50.007Z,0.95
2022-07-27T17:29:36.877Z,1.08
2022-07-27T17:32:23.608Z,1.10
2022-07-27T17:35:11.190Z,1.10
2022-07-27T17:38:06.316Z,0.90
2022-07-27T17:40:55.619Z,0.93
2022-07-27T17:43:42.598Z,1.00
2022-07-27T17:46:30.187Z,0.90
2022-07-27T17:49:18.809Z,1.20
2022-07-27T17:52:06.892Z,0.80
2022-07-27T17:54:53.996Z,0.90
2022-07-27T17:57:42.270Z,0.88
2022-07-27T18:00:29.045Z,0.80
2022-07-27T18:03:17.253Z,1.00
2022-07-27T18:06:05.350Z,1.20
2022-07-27T18:08:52.012Z,0.90
2022-07-27T18:11:39.067Z,0.80
2022-07-27T18:14:26.930Z,1.33
2022-07-27T18:17:13.509Z,0.80
2022-07-27T18:19:59.864Z,1.10
2022-07-27T18:22:46.395Z,0.80
2022-07-27T18:25:32.799Z,1.20
2022-07-27T18:28:21.177Z,0.98
2022-07-27T18:31:12.444Z,0.80
2022-07-27T18:33:59.297Z,0.90
2022-07-27T18:36:46.998Z,0.93
2022-07-27T18:39:34.236Z,0.82
2022-07-27T18:42:21.151Z,1.10
2022-07-27T18:45:09.300Z,1.00
2022-07-27T18:47:57.120Z,1.15
2022-07-27T18:50:44.114Z,1.13
2022-07-27T18:53:31.193Z,1.48
2022-07-27T18:56:18.247Z,1.10
2022-07-27T18:59:04.982Z,0.80
2022-07-27T19:01:52.227Z,1.02
2022-07-27T19:04:41.184Z,0.93
2022-07-27T19:07:30.749Z,0.90
2022-07-27T19:10:19.374Z,1.08
2022-07-27T19:13:06.371Z,1.27
2022-07-27T19:15:52.857Z,1.05
2022-07-27T19:18:39.313Z,1.30
2022-07-27T19:21:27.578Z,0.90
2022-07-27T19:24:14.885Z,1.10
2022-07-27T19:27:01.210Z,0.90
2022-07-27T19:29:47.923Z,0.90
2022-07-27T19:32:34.947Z,1.00
2022-07-27T19:35:21.333Z,0.98
2022-07-27T19:38:09.396Z,1.05
2022-07-27T19:40:56.439Z,1.10
2022-07-27T19:43:43.399Z,1.20
2022-07-27T19:46:30.758Z,1.20
2022-07-27T19:49:18.269Z,1.00
2022-07-27T19:52:05.842Z,1.48
2022-07-27T19:54:54.065Z,0.95
2022-07-27T19:57:40.834Z,0.90
2022-07-27T20:00:28.528Z,1.10
2022-07-27T20:03:15.434Z,1.25
2022-07-27T20:06:03.103Z,0.90
2022-07-27T20:08:49.846Z,0.95
2022-07-27T20:11:37.965Z,0.98
2022-07-27T20:14:24.573Z,0.80
2022-07-27T20:17:11.085Z,0.90
2022-07-27T20:19:57.918Z,0.82
2022-07-27T20:22:44.789Z,0.90
2022-07-27T20:25:31.414Z,0.90
2022-07-27T20:28:19.233Z,0.80
2022-07-27T20:31:05.997Z,1.00
2022-07-27T20:33:52.997Z,0.70
2022-07-27T20:36:39.398Z,0.70
2022-07-27T20:39:26.083Z,0.80
2022-07-27T20:42:13.151Z,1.33
2022-07-27T20:45:02.845Z,0.80
2022-07-27T20:47:49.819Z,0.88
2022-07-27T20:50:36.842Z,0.63
2022-07-27T20:53:23.681Z,1.00
2022-07-27T20:56:10.180Z,0.93
2022-07-27T20:58:57.221Z,0.80
2022-07-27T21:01:45.098Z,0.70
2022-07-27T21:04:31.609Z,0.77
2022-07-27T21:07:19.942Z,0.73
2022-07-27T21:10:07.962Z,0.90
2022-07-27T21:12:54.876Z,0.80
2022-07-27T21:15:42.202Z,0.90
2022-07-27T21:18:30.198Z,0.80
2022-07-27T21:21:17.173Z,0.85
2022-07-27T21:24:20.846Z,0.90
2022-07-27T21:27:08.969Z,0.77
2022-07-27T21:29:55.911Z,0.70
2022-07-27T21:32:42.500Z,0.80
2022-07-27T21:35:30.366Z,0.68
2022-07-27T21:38:17.023Z,0.88
2022-07-27T21:41:03.641Z,1.00
2022-07-27T21:43:52.114Z,0.90
2022-07-27T21:46:39.076Z,0.80
2022-07-27T21:49:33.954Z,1.20
2022-07-27T21:52:22.734Z,1.13
2022-07-27T21:55:09.795Z,0.70
2022-07-27T21:57:56.793Z,0.90
2022-07-27T22:00:43.589Z,0.75
2022-07-27T22:03:30.222Z,0.70
2022-07-27T22:06:17.180Z,0.80
2022-07-27T22:09:05.142Z,0.90
2022-07-27T22:11:51.722Z,0.90
2022-07-27T22:14:38.250Z,0.90
2022-07-27T22:17:24.639Z,0.70
2022-07-27T22:20:11.501Z,0.98
2022-07-27T22:22:58.982Z,0.75
2022-07-27T22:25:47.186Z,0.90
2022-07-27T22:28:34.033Z,0.75
2022-07-27T22:31:22.727Z,1.08
2022-07-27T22:34:09.763Z,0.80
2022-07-27T22:36:56.865Z,0.95
2022-07-27T22:39:43.785Z,0.55
2022-07-27T22:42:32.446Z,0.80
2022-07-27T22:45:18.749Z,0.70
2022-07-27T22:48:05.878Z,0.85
2022-07-27T22:50:52.814Z,0.80
2022-07-27T22:53:39.696Z,0.88
2022-07-27T22:56:26.727Z,0.90
2022-07-27T22:59:14.517Z,0.70
2022-07-27T23:02:01.316Z,0.82
2022-07-27T23:04:48.152Z,0.77
2022-07-27T23:07:35.061Z,0.90
2022-07-27T23:10:39.526Z,0.60
2022-07-27T23:13:26.239Z,1.15
2022-07-27T23:16:22.232Z,0.88
2022-07-27T23:19:09.899Z,1.10
2022-07-27T23:22:01.375Z,1.02
2022-07-27T23:24:48.730Z,0.77
2022-07-27T23:27:37.590Z,0.80
2022-07-27T23:30:24.029Z,0.95
2022-07-27T23:33:11.985Z,0.77
2022-07-27T23:35:58.834Z,0.77
2022-07-27T23:38:45.745Z,0.77
2022-07-27T23:41:32.134Z,0.70
2022-07-27T23:44:19.137Z,1.00
2022-07-27T23:47:05.554Z,0.70
2022-07-27T23:49:53.781Z,0.80
2022-07-27T23:52:40.601Z,0.73
2022-07-27T23:55:27.525Z,0.80
2022-07-27T23:58:14.244Z,0.90
